sensor_id;sensor_type;location;lat;lon;timestamp;P1;durP1;ratioP1;P2;durP2;ratioP2
64498;SDS011;51087;55.718;21.122;2023-04-20T00:01:50;8.30;;;3.33;;
64498;SDS011;51087;55.718;21.122;2023-04-20T00:04:16;9.85;;;3.50;;
64498;SDS011;51087;55.718;21.122;2023-04-20T00:06:42;16.75;;;3.30;;
64498;SDS011;51087;55.718;21.122;2023-04-20T00:09:09;8.90;;;3.38;;
64498;SDS011;51087;55.718;21.122;2023-04-20T00:11:35;8.43;;;3.17;;
64498;SDS011;51087;55.718;21.122;2023-04-20T00:14:00;7.97;;;3.20;;
64498;SDS011;51087;55.718;21.122;2023-04-20T00:16:26;10.45;;;3.53;;
64498;SDS011;51087;55.718;21.122;2023-04-20T00:18:51;9.95;;;2.88;;
64498;SDS011;51087;55.718;21.122;2023-04-20T00:21:17;6.35;;;3.25;;
64498;SDS011;51087;55.718;21.122;2023-04-20T00:23:46;7.90;;;3.08;;
64498;SDS011;51087;55.718;21.122;2023-04-20T00:26:11;4.50;;;2.83;;
64498;SDS011;51087;55.718;21.122;2023-04-20T00:28:37;6.85;;;3.25;;
64498;SDS011;51087;55.718;21.122;2023-04-20T00:31:02;14.15;;;3.13;;
64498;SDS011;51087;55.718;21.122;2023-04-20T00:33:27;7.32;;;3.30;;
64498;SDS011;51087;55.718;21.122;2023-04-20T00:35:53;10.38;;;3.17;;
64498;SDS011;51087;55.718;21.122;2023-04-20T00:38:20;9.82;;;2.92;;
64498;SDS011;51087;55.718;21.122;2023-04-20T00:40:45;7.22;;;2.88;;
64498;SDS011;51087;55.718;21.122;2023-04-20T00:43:16;6.75;;;2.78;;
64498;SDS011;51087;55.718;21.122;2023-04-20T00:45:43;6.88;;;3.30;;
64498;SDS011;51087;55.718;21.122;2023-04-20T00:48:09;7.18;;;3.55;;
64498;SDS011;51087;55.718;21.122;2023-04-20T00:50:35;5.95;;;3.10;;
64498;SDS011;51087;55.718;21.122;2023-04-20T00:53:01;7.05;;;2.88;;
64498;SDS011;51087;55.718;21.122;2023-04-20T00:55:27;9.18;;;3.40;;
64498;SDS011;51087;55.718;21.122;2023-04-20T00:57:54;6.93;;;3.15;;
64498;SDS011;51087;55.718;21.122;2023-04-20T01:00:20;5.30;;;2.90;;
64498;SDS011;51087;55.718;21.122;2023-04-20T01:02:46;8.63;;;3.05;;
64498;SDS011;51087;55.718;21.122;2023-04-20T01:05:12;6.82;;;2.30;;
64498;SDS011;51087;55.718;21.122;2023-04-20T01:07:37;7.22;;;2.83;;
64498;SDS011;51087;55.718;21.122;2023-04-20T01:10:04;7.30;;;2.90;;
64498;SDS011;51087;55.718;21.122;2023-04-20T01:12:30;5.88;;;2.75;;
64498;SDS011;51087;55.718;21.122;2023-04-20T01:14:56;10.10;;;2.83;;
64498;SDS011;51087;55.718;21.122;2023-04-20T01:17:21;6.88;;;2.63;;
64498;SDS011;51087;55.718;21.122;2023-04-20T01:19:48;5.85;;;2.83;;
64498;SDS011;51087;55.718;21.122;2023-04-20T01:22:17;7.70;;;2.88;;
64498;SDS011;51087;55.718;21.122;2023-04-20T01:24:44;8.90;;;2.65;;
64498;SDS011;51087;55.718;21.122;2023-04-20T01:27:10;3.58;;;1.95;;
64498;SDS011;51087;55.718;21.122;2023-04-20T01:29:36;9.68;;;3.35;;
64498;SDS011;51087;55.718;21.122;2023-04-20T01:32:02;5.30;;;2.78;;
64498;SDS011;51087;55.718;21.122;2023-04-20T01:34:27;7.38;;;2.75;;
64498;SDS011;51087;55.718;21.122;2023-04-20T01:36:53;6.47;;;3.22;;
64498;SDS011;51087;55.718;21.122;2023-04-20T01:39:18;4.05;;;2.80;;
64498;SDS011;51087;55.718;21.122;2023-04-20T01:41:44;7.53;;;3.10;;
64498;SDS011;51087;55.718;21.122;2023-04-20T01:44:09;6.45;;;2.63;;
64498;SDS011;51087;55.718;21.122;2023-04-20T01:46:38;8.00;;;3.03;;
64498;SDS011;51087;55.718;21.122;2023-04-20T01:49:04;6.03;;;3.00;;
64498;SDS011;51087;55.718;21.122;2023-04-20T01:51:31;12.75;;;2.78;;
64498;SDS011;51087;55.718;21.122;2023-04-20T01:53:57;9.55;;;2.97;;
64498;SDS011;51087;55.718;21.122;2023-04-20T01:56:23;9.55;;;2.95;;
64498;SDS011;51087;55.718;21.122;2023-04-20T01:58:48;7.47;;;2.80;;
64498;SDS011;51087;55.718;21.122;2023-04-20T02:01:14;7.45;;;3.03;;
64498;SDS011;51087;55.718;21.122;2023-04-20T02:03:39;6.32;;;3.03;;
64498;SDS011;51087;55.718;21.122;2023-04-20T02:06:05;5.75;;;2.65;;
64498;SDS011;51087;55.718;21.122;2023-04-20T02:08:31;4.38;;;2.53;;
64498;SDS011;51087;55.718;21.122;2023-04-20T02:10:57;9.20;;;2.63;;
64498;SDS011;51087;55.718;21.122;2023-04-20T02:13:22;9.65;;;3.20;;
64498;SDS011;51087;55.718;21.122;2023-04-20T02:15:49;5.43;;;2.90;;
64498;SDS011;51087;55.718;21.122;2023-04-20T02:18:14;5.13;;;2.85;;
64498;SDS011;51087;55.718;21.122;2023-04-20T02:20:40;12.35;;;2.83;;
64498;SDS011;51087;55.718;21.122;2023-04-20T02:23:06;8.55;;;3.15;;
64498;SDS011;51087;55.718;21.122;2023-04-20T02:25:32;10.68;;;2.90;;
64498;SDS011;51087;55.718;21.122;2023-04-20T02:27:57;7.50;;;3.22;;
64498;SDS011;51087;55.718;21.122;2023-04-20T02:30:23;7.07;;;2.70;;
64498;SDS011;51087;55.718;21.122;2023-04-20T02:32:48;7.03;;;2.83;;
64498;SDS011;51087;55.718;21.122;2023-04-20T02:35:14;6.25;;;3.25;;
64498;SDS011;51087;55.718;21.122;2023-04-20T02:37:39;5.50;;;3.20;;
64498;SDS011;51087;55.718;21.122;2023-04-20T02:40:05;8.45;;;2.70;;
64498;SDS011;51087;55.718;21.122;2023-04-20T02:42:31;6.88;;;3.20;;
64498;SDS011;51087;55.718;21.122;2023-04-20T02:44:57;5.75;;;2.58;;
64498;SDS011;51087;55.718;21.122;2023-04-20T02:47:22;7.38;;;3.35;;
64498;SDS011;51087;55.718;21.122;2023-04-20T02:49:48;4.00;;;2.22;;
64498;SDS011;51087;55.718;21.122;2023-04-20T02:52:13;7.53;;;3.13;;
64498;SDS011;51087;55.718;21.122;2023-04-20T02:54:39;5.97;;;3.20;;
64498;SDS011;51087;55.718;21.122;2023-04-20T02:57:04;7.30;;;3.20;;
64498;SDS011;51087;55.718;21.122;2023-04-20T02:59:30;7.93;;;3.42;;
64498;SDS011;51087;55.718;21.122;2023-04-20T03:01:55;8.68;;;3.35;;
64498;SDS011;51087;55.718;21.122;2023-04-20T03:04:21;9.80;;;3.17;;
64498;SDS011;51087;55.718;21.122;2023-04-20T03:06:46;10.90;;;3.78;;
64498;SDS011;51087;55.718;21.122;2023-04-20T03:09:14;10.32;;;3.33;;
64498;SDS011;51087;55.718;21.122;2023-04-20T03:11:39;8.77;;;3.30;;
64498;SDS011;51087;55.718;21.122;2023-04-20T03:14:05;8.15;;;3.40;;
64498;SDS011;51087;55.718;21.122;2023-04-20T03:16:30;11.68;;;3.05;;
64498;SDS011;51087;55.718;21.122;2023-04-20T03:18:56;9.85;;;3.65;;
64498;SDS011;51087;55.718;21.122;2023-04-20T03:21:21;8.75;;;3.10;;
64498;SDS011;51087;55.718;21.122;2023-04-20T03:23:47;6.53;;;3.00;;
64498;SDS011;51087;55.718;21.122;2023-04-20T03:26:13;6.43;;;3.33;;
64498;SDS011;51087;55.718;21.122;2023-04-20T03:28:38;6.28;;;3.38;;
64498;SDS011;51087;55.718;21.122;2023-04-20T03:31:05;6.15;;;3.33;;
64498;SDS011;51087;55.718;21.122;2023-04-20T03:33:30;8.45;;;3.30;;
64498;SDS011;51087;55.718;21.122;2023-04-20T03:35:56;6.82;;;2.42;;
64498;SDS011;51087;55.718;21.122;2023-04-20T03:38:21;9.75;;;3.33;;
64498;SDS011;51087;55.718;21.122;2023-04-20T03:40:47;9.55;;;3.50;;
64498;SDS011;51087;55.718;21.122;2023-04-20T03:43:12;8.43;;;3.40;;
64498;SDS011;51087;55.718;21.122;2023-04-20T03:45:37;7.35;;;3.05;;
64498;SDS011;51087;55.718;21.122;2023-04-20T03:48:03;5.72;;;3.20;;
64498;SDS011;51087;55.718;21.122;2023-04-20T03:50:29;6.72;;;3.70;;
64498;SDS011;51087;55.718;21.122;2023-04-20T03:52:54;7.78;;;3.90;;
64498;SDS011;51087;55.718;21.122;2023-04-20T03:55:20;8.50;;;3.65;;
64498;SDS011;51087;55.718;21.122;2023-04-20T03:57:45;7.10;;;3.47;;
64498;SDS011;51087;55.718;21.122;2023-04-20T04:00:12;9.43;;;3.55;;
64498;SDS011;51087;55.718;21.122;2023-04-20T04:02:38;7.65;;;3.72;;
64498;SDS011;51087;55.718;21.122;2023-04-20T04:05:03;9.07;;;3.60;;
64498;SDS011;51087;55.718;21.122;2023-04-20T04:07:30;6.25;;;3.38;;
64498;SDS011;51087;55.718;21.122;2023-04-20T04:09:55;8.35;;;3.45;;
64498;SDS011;51087;55.718;21.122;2023-04-20T04:12:20;8.75;;;3.65;;
64498;SDS011;51087;55.718;21.122;2023-04-20T04:14:46;7.30;;;3.60;;
64498;SDS011;51087;55.718;21.122;2023-04-20T04:17:14;8.10;;;3.60;;
64498;SDS011;51087;55.718;21.122;2023-04-20T04:19:40;8.75;;;3.88;;
64498;SDS011;51087;55.718;21.122;2023-04-20T04:22:07;16.00;;;3.58;;
64498;SDS011;51087;55.718;21.122;2023-04-20T04:24:33;9.88;;;3.63;;
64498;SDS011;51087;55.718;21.122;2023-04-20T04:26:58;9.48;;;3.72;;
64498;SDS011;51087;55.718;21.122;2023-04-20T04:29:23;7.53;;;3.58;;
64498;SDS011;51087;55.718;21.122;2023-04-20T04:31:52;8.35;;;3.80;;
64498;SDS011;51087;55.718;21.122;2023-04-20T04:34:18;14.23;;;3.85;;
64498;SDS011;51087;55.718;21.122;2023-04-20T04:36:44;6.85;;;3.40;;
64498;SDS011;51087;55.718;21.122;2023-04-20T04:39:10;10.27;;;3.80;;
64498;SDS011;51087;55.718;21.122;2023-04-20T04:41:36;11.80;;;4.00;;
64498;SDS011;51087;55.718;21.122;2023-04-20T04:44:01;12.50;;;3.78;;
64498;SDS011;51087;55.718;21.122;2023-04-20T04:46:27;9.18;;;3.42;;
64498;SDS011;51087;55.718;21.122;2023-04-20T04:48:52;12.95;;;3.85;;
64498;SDS011;51087;55.718;21.122;2023-04-20T04:51:18;8.80;;;3.95;;
64498;SDS011;51087;55.718;21.122;2023-04-20T04:53:43;12.73;;;3.60;;
64498;SDS011;51087;55.718;21.122;2023-04-20T04:56:10;7.55;;;3.25;;
64498;SDS011;51087;55.718;21.122;2023-04-20T04:58:37;7.07;;;3.88;;
64498;SDS011;51087;55.718;21.122;2023-04-20T05:01:02;11.75;;;3.95;;
64498;SDS011;51087;55.718;21.122;2023-04-20T05:03:28;11.60;;;3.92;;
64498;SDS011;51087;55.718;21.122;2023-04-20T05:05:53;7.65;;;4.07;;
64498;SDS011;51087;55.718;21.122;2023-04-20T05:08:20;18.05;;;3.97;;
64498;SDS011;51087;55.718;21.122;2023-04-20T05:10:46;15.40;;;4.22;;
64498;SDS011;51087;55.718;21.122;2023-04-20T05:13:11;6.78;;;3.80;;
64498;SDS011;51087;55.718;21.122;2023-04-20T05:15:37;10.13;;;3.55;;
64498;SDS011;51087;55.718;21.122;2023-04-20T05:18:02;9.57;;;3.92;;
64498;SDS011;51087;55.718;21.122;2023-04-20T05:20:28;6.75;;;3.72;;
64498;SDS011;51087;55.718;21.122;2023-04-20T05:22:53;6.75;;;2.90;;
64498;SDS011;51087;55.718;21.122;2023-04-20T05:25:19;12.30;;;4.78;;
64498;SDS011;51087;55.718;21.122;2023-04-20T05:27:44;9.95;;;3.72;;
64498;SDS011;51087;55.718;21.122;2023-04-20T05:30:10;11.98;;;3.88;;
64498;SDS011;51087;55.718;21.122;2023-04-20T05:32:36;7.93;;;3.63;;
64498;SDS011;51087;55.718;21.122;2023-04-20T05:35:01;8.93;;;3.55;;
64498;SDS011;51087;55.718;21.122;2023-04-20T05:37:27;9.57;;;3.47;;
64498;SDS011;51087;55.718;21.122;2023-04-20T05:39:53;13.68;;;4.10;;
64498;SDS011;51087;55.718;21.122;2023-04-20T05:42:18;8.20;;;4.00;;
64498;SDS011;51087;55.718;21.122;2023-04-20T05:44:43;8.75;;;4.32;;
64498;SDS011;51087;55.718;21.122;2023-04-20T05:47:09;7.90;;;4.20;;
64498;SDS011;51087;55.718;21.122;2023-04-20T05:49:35;7.55;;;3.25;;
64498;SDS011;51087;55.718;21.122;2023-04-20T05:52:00;8.35;;;3.13;;
64498;SDS011;51087;55.718;21.122;2023-04-20T05:54:26;8.50;;;4.00;;
64498;SDS011;51087;55.718;21.122;2023-04-20T05:56:55;13.60;;;3.85;;
64498;SDS011;51087;55.718;21.122;2023-04-20T05:59:24;5.88;;;3.63;;
64498;SDS011;51087;55.718;21.122;2023-04-20T06:01:50;9.80;;;3.92;;
64498;SDS011;51087;55.718;21.122;2023-04-20T06:04:15;13.48;;;3.78;;
64498;SDS011;51087;55.718;21.122;2023-04-20T06:06:41;9.70;;;4.60;;
64498;SDS011;51087;55.718;21.122;2023-04-20T06:09:06;12.55;;;3.95;;
64498;SDS011;51087;55.718;21.122;2023-04-20T06:11:31;15.00;;;4.38;;
64498;SDS011;51087;55.718;21.122;2023-04-20T06:13:58;8.48;;;3.60;;
64498;SDS011;51087;55.718;21.122;2023-04-20T06:16:24;7.45;;;3.30;;
64498;SDS011;51087;55.718;21.122;2023-04-20T06:18:49;8.95;;;3.83;;
64498;SDS011;51087;55.718;21.122;2023-04-20T06:21:14;15.40;;;4.80;;
64498;SDS011;51087;55.718;21.122;2023-04-20T06:23:41;5.57;;;3.25;;
64498;SDS011;51087;55.718;21.122;2023-04-20T06:26:08;14.55;;;4.65;;
64498;SDS011;51087;55.718;21.122;2023-04-20T06:28:34;16.48;;;4.03;;
64498;SDS011;51087;55.718;21.122;2023-04-20T06:31:00;12.73;;;3.67;;
64498;SDS011;51087;55.718;21.122;2023-04-20T06:33:26;9.93;;;3.72;;
64498;SDS011;51087;55.718;21.122;2023-04-20T06:35:51;29.70;;;5.40;;
64498;SDS011;51087;55.718;21.122;2023-04-20T06:38:18;8.73;;;4.10;;
64498;SDS011;51087;55.718;21.122;2023-04-20T06:40:44;15.38;;;4.72;;
64498;SDS011;51087;55.718;21.122;2023-04-20T06:43:10;8.75;;;4.03;;
64498;SDS011;51087;55.718;21.122;2023-04-20T06:45:35;11.05;;;4.30;;
64498;SDS011;51087;55.718;21.122;2023-04-20T06:48:01;17.70;;;4.57;;
64498;SDS011;51087;55.718;21.122;2023-04-20T06:50:26;8.65;;;3.63;;
64498;SDS011;51087;55.718;21.122;2023-04-20T06:52:52;8.43;;;3.75;;
64498;SDS011;51087;55.718;21.122;2023-04-20T06:55:17;9.68;;;4.05;;
64498;SDS011;51087;55.718;21.122;2023-04-20T06:57:42;12.05;;;4.80;;
64498;SDS011;51087;55.718;21.122;2023-04-20T07:00:09;12.30;;;4.13;;
64498;SDS011;51087;55.718;21.122;2023-04-20T07:05:12;5.22;;;2.80;;
64498;SDS011;51087;55.718;21.122;2023-04-20T07:07:38;9.95;;;4.20;;
64498;SDS011;51087;55.718;21.122;2023-04-20T07:10:05;13.93;;;3.85;;
64498;SDS011;51087;55.718;21.122;2023-04-20T07:12:35;11.07;;;4.40;;
64498;SDS011;51087;55.718;21.122;2023-04-20T07:15:02;8.70;;;4.22;;
64498;SDS011;51087;55.718;21.122;2023-04-20T07:17:29;6.00;;;3.45;;
64498;SDS011;51087;55.718;21.122;2023-04-20T07:19:54;10.10;;;4.55;;
64498;SDS011;51087;55.718;21.122;2023-04-20T07:22:20;13.82;;;5.50;;
64498;SDS011;51087;55.718;21.122;2023-04-20T07:24:46;8.50;;;4.35;;
64498;SDS011;51087;55.718;21.122;2023-04-20T07:27:11;8.80;;;4.15;;
64498;SDS011;51087;55.718;21.122;2023-04-20T07:29:37;9.35;;;4.47;;
64498;SDS011;51087;55.718;21.122;2023-04-20T07:32:02;17.13;;;4.85;;
64498;SDS011;51087;55.718;21.122;2023-04-20T07:34:28;11.55;;;4.85;;
64498;SDS011;51087;55.718;21.122;2023-04-20T07:36:53;11.57;;;4.53;;
64498;SDS011;51087;55.718;21.122;2023-04-20T07:39:19;9.50;;;3.08;;
64498;SDS011;51087;55.718;21.122;2023-04-20T07:41:44;10.30;;;3.95;;
64498;SDS011;51087;55.718;21.122;2023-04-20T07:44:11;10.00;;;4.47;;
64498;SDS011;51087;55.718;21.122;2023-04-20T07:46:37;7.53;;;3.58;;
64498;SDS011;51087;55.718;21.122;2023-04-20T07:49:03;14.68;;;4.72;;
64498;SDS011;51087;55.718;21.122;2023-04-20T07:51:30;12.00;;;4.13;;
64498;SDS011;51087;55.718;21.122;2023-04-20T07:53:57;8.25;;;3.90;;
64498;SDS011;51087;55.718;21.122;2023-04-20T07:56:23;15.30;;;4.03;;
64498;SDS011;51087;55.718;21.122;2023-04-20T07:58:49;14.75;;;3.92;;
64498;SDS011;51087;55.718;21.122;2023-04-20T08:01:14;12.60;;;4.25;;
64498;SDS011;51087;55.718;21.122;2023-04-20T08:03:40;8.00;;;3.35;;
64498;SDS011;51087;55.718;21.122;2023-04-20T08:06:05;12.13;;;4.05;;
64498;SDS011;51087;55.718;21.122;2023-04-20T08:08:31;13.30;;;4.63;;
64498;SDS011;51087;55.718;21.122;2023-04-20T08:10:59;10.02;;;4.45;;
64498;SDS011;51087;55.718;21.122;2023-04-20T08:13:25;10.32;;;4.40;;
64498;SDS011;51087;55.718;21.122;2023-04-20T08:15:51;12.23;;;4.60;;
64498;SDS011;51087;55.718;21.122;2023-04-20T08:18:17;10.35;;;4.45;;
64498;SDS011;51087;55.718;21.122;2023-04-20T08:20:42;10.27;;;4.50;;
64498;SDS011;51087;55.718;21.122;2023-04-20T08:23:09;12.50;;;3.97;;
64498;SDS011;51087;55.718;21.122;2023-04-20T08:25:37;18.98;;;4.72;;
64498;SDS011;51087;55.718;21.122;2023-04-20T08:28:03;11.88;;;4.50;;
64498;SDS011;51087;55.718;21.122;2023-04-20T08:30:30;16.98;;;4.80;;
64498;SDS011;51087;55.718;21.122;2023-04-20T08:32:55;11.90;;;3.58;;
64498;SDS011;51087;55.718;21.122;2023-04-20T08:35:22;8.73;;;4.53;;
64498;SDS011;51087;55.718;21.122;2023-04-20T08:37:47;11.23;;;3.92;;
64498;SDS011;51087;55.718;21.122;2023-04-20T08:40:13;5.72;;;3.20;;
64498;SDS011;51087;55.718;21.122;2023-04-20T08:42:39;10.60;;;5.55;;
64498;SDS011;51087;55.718;21.122;2023-04-20T08:45:05;11.90;;;4.53;;
64498;SDS011;51087;55.718;21.122;2023-04-20T08:47:30;17.08;;;4.30;;
64498;SDS011;51087;55.718;21.122;2023-04-20T08:49:57;20.33;;;4.35;;
64498;SDS011;51087;55.718;21.122;2023-04-20T08:52:24;10.38;;;4.50;;
64498;SDS011;51087;55.718;21.122;2023-04-20T08:54:49;12.68;;;4.55;;
64498;SDS011;51087;55.718;21.122;2023-04-20T08:57:15;18.45;;;4.55;;
64498;SDS011;51087;55.718;21.122;2023-04-20T08:59:40;10.27;;;4.38;;
64498;SDS011;51087;55.718;21.122;2023-04-20T09:02:09;16.48;;;4.30;;
64498;SDS011;51087;55.718;21.122;2023-04-20T09:04:35;8.40;;;4.47;;
64498;SDS011;51087;55.718;21.122;2023-04-20T09:07:01;12.55;;;4.43;;
64498;SDS011;51087;55.718;21.122;2023-04-20T09:09:26;9.23;;;4.22;;
64498;SDS011;51087;55.718;21.122;2023-04-20T09:12:05;11.40;;;4.10;;
64498;SDS011;51087;55.718;21.122;2023-04-20T09:14:45;12.82;;;4.50;;
64498;SDS011;51087;55.718;21.122;2023-04-20T09:17:12;8.38;;;4.18;;
64498;SDS011;51087;55.718;21.122;2023-04-20T09:19:38;9.15;;;4.38;;
64498;SDS011;51087;55.718;21.122;2023-04-20T09:22:05;9.27;;;4.55;;
64498;SDS011;51087;55.718;21.122;2023-04-20T09:24:31;9.40;;;4.05;;
64498;SDS011;51087;55.718;21.122;2023-04-20T09:26:57;11.90;;;3.72;;
64498;SDS011;51087;55.718;21.122;2023-04-20T09:29:25;5.95;;;3.90;;
64498;SDS011;51087;55.718;21.122;2023-04-20T09:31:51;9.07;;;4.50;;
64498;SDS011;51087;55.718;21.122;2023-04-20T09:34:16;11.43;;;3.95;;
64498;SDS011;51087;55.718;21.122;2023-04-20T09:36:44;12.45;;;4.45;;
64498;SDS011;51087;55.718;21.122;2023-04-20T09:39:23;6.82;;;4.00;;
64498;SDS011;51087;55.718;21.122;2023-04-20T09:41:49;6.35;;;4.05;;
64498;SDS011;51087;55.718;21.122;2023-04-20T09:44:16;7.82;;;3.83;;
64498;SDS011;51087;55.718;21.122;2023-04-20T09:46:43;11.20;;;4.25;;
64498;SDS011;51087;55.718;21.122;2023-04-20T09:49:09;11.52;;;4.55;;
64498;SDS011;51087;55.718;21.122;2023-04-20T09:51:36;7.47;;;3.67;;
64498;SDS011;51087;55.718;21.122;2023-04-20T09:54:05;9.93;;;4.10;;
64498;SDS011;51087;55.718;21.122;2023-04-20T09:56:32;8.82;;;3.83;;
64498;SDS011;51087;55.718;21.122;2023-04-20T09:58:58;10.15;;;3.80;;
64498;SDS011;51087;55.718;21.122;2023-04-20T10:01:25;14.38;;;4.78;;
64498;SDS011;51087;55.718;21.122;2023-04-20T10:03:53;7.78;;;3.75;;
64498;SDS011;51087;55.718;21.122;2023-04-20T10:06:22;8.90;;;4.63;;
64498;SDS011;51087;55.718;21.122;2023-04-20T10:08:53;10.82;;;3.92;;
64498;SDS011;51087;55.718;21.122;2023-04-20T10:11:29;10.52;;;4.07;;
64498;SDS011;51087;55.718;21.122;2023-04-20T10:14:18;7.32;;;4.03;;
64498;SDS011;51087;55.718;21.122;2023-04-20T10:16:44;7.43;;;4.03;;
64498;SDS011;51087;55.718;21.122;2023-04-20T10:19:10;8.52;;;3.63;;
64498;SDS011;51087;55.718;21.122;2023-04-20T10:21:46;11.23;;;4.05;;
64498;SDS011;51087;55.718;21.122;2023-04-20T10:24:13;6.25;;;3.72;;
64498;SDS011;51087;55.718;21.122;2023-04-20T10:26:43;12.27;;;4.05;;
64498;SDS011;51087;55.718;21.122;2023-04-20T10:29:10;8.88;;;3.75;;
64498;SDS011;51087;55.718;21.122;2023-04-20T10:31:46;8.57;;;4.40;;
64498;SDS011;51087;55.718;21.122;2023-04-20T10:34:12;14.90;;;4.30;;
64498;SDS011;51087;55.718;21.122;2023-04-20T10:36:37;12.80;;;3.97;;
64498;SDS011;51087;55.718;21.122;2023-04-20T10:41:49;10.15;;;3.80;;
64498;SDS011;51087;55.718;21.122;2023-04-20T10:44:19;12.75;;;4.00;;
64498;SDS011;51087;55.718;21.122;2023-04-20T10:46:52;10.60;;;3.60;;
64498;SDS011;51087;55.718;21.122;2023-04-20T10:49:18;7.43;;;3.73;;
64498;SDS011;51087;55.718;21.122;2023-04-20T10:51:50;14.88;;;3.78;;
64498;SDS011;51087;55.718;21.122;2023-04-20T10:56:43;5.88;;;3.70;;
64498;SDS011;51087;55.718;21.122;2023-04-20T10:59:11;6.88;;;4.05;;
64498;SDS011;51087;55.718;21.122;2023-04-20T11:01:38;10.55;;;3.80;;
64498;SDS011;51087;55.718;21.122;2023-04-20T11:04:05;9.48;;;3.80;;
64498;SDS011;51087;55.718;21.122;2023-04-20T11:06:31;10.52;;;3.55;;
64498;SDS011;51087;55.718;21.122;2023-04-20T11:08:57;8.50;;;3.60;;
64498;SDS011;51087;55.718;21.122;2023-04-20T11:11:23;6.32;;;3.42;;
64498;SDS011;51087;55.718;21.122;2023-04-20T11:13:51;12.85;;;3.90;;
64498;SDS011;51087;55.718;21.122;2023-04-20T11:16:28;9.00;;;3.88;;
64498;SDS011;51087;55.718;21.122;2023-04-20T11:18:54;8.82;;;3.90;;
64498;SDS011;51087;55.718;21.122;2023-04-20T11:21:21;7.07;;;3.72;;
64498;SDS011;51087;55.718;21.122;2023-04-20T11:23:47;12.50;;;4.25;;
64498;SDS011;51087;55.718;21.122;2023-04-20T11:26:13;13.35;;;3.72;;
64498;SDS011;51087;55.718;21.122;2023-04-20T11:28:52;16.95;;;4.85;;
64498;SDS011;51087;55.718;21.122;2023-04-20T11:31:18;9.25;;;4.20;;
64498;SDS011;51087;55.718;21.122;2023-04-20T11:33:44;6.47;;;3.78;;
64498;SDS011;51087;55.718;21.122;2023-04-20T11:36:17;11.20;;;4.10;;
64498;SDS011;51087;55.718;21.122;2023-04-20T11:38:43;5.13;;;3.42;;
64498;SDS011;51087;55.718;21.122;2023-04-20T11:41:10;8.10;;;3.50;;
64498;SDS011;51087;55.718;21.122;2023-04-20T11:43:35;10.38;;;3.47;;
64498;SDS011;51087;55.718;21.122;2023-04-20T11:46:01;12.25;;;3.75;;
64498;SDS011;51087;55.718;21.122;2023-04-20T11:48:30;4.95;;;3.15;;
64498;SDS011;51087;55.718;21.122;2023-04-20T11:50:56;8.57;;;3.63;;
64498;SDS011;51087;55.718;21.122;2023-04-20T11:53:22;7.85;;;3.70;;
64498;SDS011;51087;55.718;21.122;2023-04-20T11:55:47;6.10;;;3.40;;
64498;SDS011;51087;55.718;21.122;2023-04-20T11:58:13;5.88;;;3.38;;
64498;SDS011;51087;55.718;21.122;2023-04-20T12:00:38;5.88;;;3.20;;
64498;SDS011;51087;55.718;21.122;2023-04-20T12:03:04;8.23;;;3.47;;
64498;SDS011;51087;55.718;21.122;2023-04-20T12:05:30;9.32;;;3.60;;
64498;SDS011;51087;55.718;21.122;2023-04-20T12:07:55;5.80;;;3.30;;
64498;SDS011;51087;55.718;21.122;2023-04-20T12:10:20;10.68;;;3.50;;
64498;SDS011;51087;55.718;21.122;2023-04-20T12:12:46;5.65;;;3.45;;
64498;SDS011;51087;55.718;21.122;2023-04-20T12:15:11;7.22;;;3.38;;
64498;SDS011;51087;55.718;21.122;2023-04-20T12:17:37;8.70;;;3.70;;
64498;SDS011;51087;55.718;21.122;2023-04-20T12:20:03;11.30;;;3.60;;
64498;SDS011;51087;55.718;21.122;2023-04-20T12:22:33;6.35;;;3.40;;
64498;SDS011;51087;55.718;21.122;2023-04-20T12:24:59;5.55;;;3.65;;
64498;SDS011;51087;55.718;21.122;2023-04-20T12:27:26;6.00;;;3.50;;
64498;SDS011;51087;55.718;21.122;2023-04-20T12:29:51;7.45;;;3.90;;
64498;SDS011;51087;55.718;21.122;2023-04-20T12:32:17;9.18;;;3.58;;
64498;SDS011;51087;55.718;21.122;2023-04-20T12:34:42;8.30;;;3.50;;
64498;SDS011;51087;55.718;21.122;2023-04-20T12:37:08;5.57;;;3.50;;
64498;SDS011;51087;55.718;21.122;2023-04-20T12:39:35;6.78;;;3.58;;
64498;SDS011;51087;55.718;21.122;2023-04-20T12:42:00;7.85;;;3.50;;
64498;SDS011;51087;55.718;21.122;2023-04-20T12:44:26;7.57;;;3.42;;
64498;SDS011;51087;55.718;21.122;2023-04-20T12:46:52;7.57;;;3.40;;
64498;SDS011;51087;55.718;21.122;2023-04-20T12:49:17;5.97;;;3.63;;
64498;SDS011;51087;55.718;21.122;2023-04-20T12:51:42;6.03;;;3.45;;
64498;SDS011;51087;55.718;21.122;2023-04-20T12:54:08;8.32;;;3.22;;
64498;SDS011;51087;55.718;21.122;2023-04-20T12:56:34;6.88;;;3.30;;
64498;SDS011;51087;55.718;21.122;2023-04-20T12:59:00;6.47;;;3.50;;
64498;SDS011;51087;55.718;21.122;2023-04-20T13:01:25;10.20;;;3.50;;
64498;SDS011;51087;55.718;21.122;2023-04-20T13:03:50;10.23;;;3.53;;
64498;SDS011;51087;55.718;21.122;2023-04-20T13:06:16;7.43;;;3.42;;
64498;SDS011;51087;55.718;21.122;2023-04-20T13:08:41;6.13;;;3.58;;
64498;SDS011;51087;55.718;21.122;2023-04-20T13:11:09;11.13;;;4.43;;
64498;SDS011;51087;55.718;21.122;2023-04-20T13:13:38;10.52;;;4.30;;
64498;SDS011;51087;55.718;21.122;2023-04-20T13:16:04;10.43;;;4.47;;
64498;SDS011;51087;55.718;21.122;2023-04-20T13:18:29;10.57;;;3.88;;
64498;SDS011;51087;55.718;21.122;2023-04-20T13:20:55;8.88;;;3.22;;
64498;SDS011;51087;55.718;21.122;2023-04-20T13:23:20;6.97;;;3.28;;
64498;SDS011;51087;55.718;21.122;2023-04-20T13:25:46;10.73;;;4.25;;
64498;SDS011;51087;55.718;21.122;2023-04-20T13:28:14;9.73;;;3.65;;
64498;SDS011;51087;55.718;21.122;2023-04-20T13:30:41;5.50;;;3.17;;
64498;SDS011;51087;55.718;21.122;2023-04-20T13:33:07;15.00;;;4.00;;
64498;SDS011;51087;55.718;21.122;2023-04-20T13:35:33;6.55;;;3.47;;
64498;SDS011;51087;55.718;21.122;2023-04-20T13:37:59;6.43;;;3.38;;
64498;SDS011;51087;55.718;21.122;2023-04-20T13:40:24;8.77;;;3.50;;
64498;SDS011;51087;55.718;21.122;2023-04-20T13:42:50;7.63;;;3.20;;
64498;SDS011;51087;55.718;21.122;2023-04-20T13:45:15;8.27;;;3.40;;
64498;SDS011;51087;55.718;21.122;2023-04-20T13:47:43;5.63;;;3.10;;
64498;SDS011;51087;55.718;21.122;2023-04-20T13:50:09;7.03;;;3.15;;
64498;SDS011;51087;55.718;21.122;2023-04-20T13:52:35;9.23;;;3.17;;
64498;SDS011;51087;55.718;21.122;2023-04-20T13:55:00;8.68;;;3.10;;
64498;SDS011;51087;55.718;21.122;2023-04-20T13:57:32;9.38;;;3.40;;
64498;SDS011;51087;55.718;21.122;2023-04-20T13:59:59;9.85;;;3.72;;
64498;SDS011;51087;55.718;21.122;2023-04-20T14:02:25;7.15;;;2.92;;
64498;SDS011;51087;55.718;21.122;2023-04-20T14:04:51;14.50;;;3.70;;
64498;SDS011;51087;55.718;21.122;2023-04-20T14:07:17;7.97;;;2.97;;
64498;SDS011;51087;55.718;21.122;2023-04-20T14:09:43;12.30;;;3.50;;
64498;SDS011;51087;55.718;21.122;2023-04-20T14:12:09;8.52;;;3.40;;
64498;SDS011;51087;55.718;21.122;2023-04-20T14:14:35;9.60;;;3.40;;
64498;SDS011;51087;55.718;21.122;2023-04-20T14:17:00;7.70;;;3.40;;
64498;SDS011;51087;55.718;21.122;2023-04-20T14:19:26;8.77;;;3.63;;
64498;SDS011;51087;55.718;21.122;2023-04-20T14:21:51;10.20;;;3.35;;
64498;SDS011;51087;55.718;21.122;2023-04-20T14:24:17;11.25;;;3.20;;
64498;SDS011;51087;55.718;21.122;2023-04-20T14:26:42;9.93;;;3.42;;
64498;SDS011;51087;55.718;21.122;2023-04-20T14:29:08;8.38;;;3.10;;
64498;SDS011;51087;55.718;21.122;2023-04-20T14:31:33;5.47;;;3.10;;
64498;SDS011;51087;55.718;21.122;2023-04-20T14:33:59;8.40;;;3.28;;